sensor_id;sensor_type;location;lat;lon;timestamp;P1;durP1;ratioP1;P2;durP2;ratioP2
15968;SDS011;8085;53.472;9.794;2023-09-19T00:00:55;2.83;;;1.00;;
15968;SDS011;8085;53.472;9.794;2023-09-19T00:03:23;2.85;;;1.05;;
15968;SDS011;8085;53.472;9.794;2023-09-19T00:05:52;2.83;;;1.08;;
15968;SDS011;8085;53.472;9.794;2023-09-19T00:08:20;1.60;;;0.90;;
15968;SDS011;8085;53.472;9.794;2023-09-19T00:10:50;1.75;;;1.15;;
15968;SDS011;8085;53.472;9.794;2023-09-19T00:13:18;1.77;;;1.10;;
15968;SDS011;8085;53.472;9.794;2023-09-19T00:15:46;4.25;;;1.17;;
15968;SDS011;8085;53.472;9.794;2023-09-19T00:18:14;3.28;;;1.10;;
15968;SDS011;8085;53.472;9.794;2023-09-19T00:20:42;2.55;;;1.05;;
15968;SDS011;8085;53.472;9.794;2023-09-19T00:23:14;4.15;;;1.40;;
15968;SDS011;8085;53.472;9.794;2023-09-19T00:25:40;3.08;;;1.10;;
15968;SDS011;8085;53.472;9.794;2023-09-19T00:28:07;5.40;;;1.13;;
15968;SDS011;8085;53.472;9.794;2023-09-19T00:30:35;2.47;;;1.25;;
15968;SDS011;8085;53.472;9.794;2023-09-19T00:33:04;3.00;;;1.38;;
15968;SDS011;8085;53.472;9.794;2023-09-19T00:35:32;4.65;;;1.13;;
15968;SDS011;8085;53.472;9.794;2023-09-19T00:37:59;5.32;;;1.20;;
15968;SDS011;8085;53.472;9.794;2023-09-19T00:40:28;4.07;;;1.30;;
15968;SDS011;8085;53.472;9.794;2023-09-19T00:42:57;3.67;;;1.13;;
15968;SDS011;8085;53.472;9.794;2023-09-19T00:45:25;5.30;;;1.65;;
15968;SDS011;8085;53.472;9.794;2023-09-19T00:47:52;3.75;;;1.40;;
15968;SDS011;8085;53.472;9.794;2023-09-19T00:50:19;3.45;;;1.55;;
15968;SDS011;8085;53.472;9.794;2023-09-19T00:52:50;2.75;;;1.50;;
15968;SDS011;8085;53.472;9.794;2023-09-19T00:55:21;4.38;;;1.73;;
15968;SDS011;8085;53.472;9.794;2023-09-19T00:57:51;6.30;;;1.55;;
15968;SDS011;8085;53.472;9.794;2023-09-19T01:00:19;4.75;;;1.55;;
15968;SDS011;8085;53.472;9.794;2023-09-19T01:02:46;4.60;;;1.52;;
15968;SDS011;8085;53.472;9.794;2023-09-19T01:05:13;4.03;;;1.80;;
15968;SDS011;8085;53.472;9.794;2023-09-19T01:07:41;5.25;;;2.38;;
15968;SDS011;8085;53.472;9.794;2023-09-19T01:10:10;8.95;;;1.88;;
15968;SDS011;8085;53.472;9.794;2023-09-19T01:15:15;5.68;;;1.90;;
15968;SDS011;8085;53.472;9.794;2023-09-19T01:17:53;2.88;;;1.92;;
15968;SDS011;8085;53.472;9.794;2023-09-19T01:20:27;3.42;;;1.92;;
15968;SDS011;8085;53.472;9.794;2023-09-19T01:23:06;5.90;;;2.17;;
15968;SDS011;8085;53.472;9.794;2023-09-19T01:28:34;6.00;;;2.30;;
15968;SDS011;8085;53.472;9.794;2023-09-19T01:31:13;4.07;;;1.90;;
15968;SDS011;8085;53.472;9.794;2023-09-19T01:33:54;4.68;;;1.80;;
15968;SDS011;8085;53.472;9.794;2023-09-19T01:36:30;3.53;;;1.77;;
15968;SDS011;8085;53.472;9.794;2023-09-19T01:39:00;7.38;;;1.50;;
15968;SDS011;8085;53.472;9.794;2023-09-19T01:44:31;4.43;;;1.67;;
15968;SDS011;8085;53.472;9.794;2023-09-19T01:47:12;3.05;;;1.63;;
15968;SDS011;8085;53.472;9.794;2023-09-19T01:49:44;4.63;;;1.92;;
15968;SDS011;8085;53.472;9.794;2023-09-19T01:52:22;3.10;;;1.85;;
15968;SDS011;8085;53.472;9.794;2023-09-19T01:54:57;5.63;;;2.05;;
15968;SDS011;8085;53.472;9.794;2023-09-19T01:57:32;5.07;;;2.05;;
15968;SDS011;8085;53.472;9.794;2023-09-19T02:00:09;3.15;;;2.30;;
15968;SDS011;8085;53.472;9.794;2023-09-19T02:02:39;4.63;;;2.50;;
15968;SDS011;8085;53.472;9.794;2023-09-19T02:05:10;4.43;;;2.33;;
15968;SDS011;8085;53.472;9.794;2023-09-19T02:07:38;4.60;;;2.45;;
15968;SDS011;8085;53.472;9.794;2023-09-19T02:10:06;4.32;;;2.35;;
15968;SDS011;8085;53.472;9.794;2023-09-19T02:12:35;4.13;;;2.40;;
15968;SDS011;8085;53.472;9.794;2023-09-19T02:15:03;5.90;;;2.22;;
15968;SDS011;8085;53.472;9.794;2023-09-19T02:17:32;6.68;;;2.25;;
15968;SDS011;8085;53.472;9.794;2023-09-19T02:20:00;6.28;;;2.13;;
15968;SDS011;8085;53.472;9.794;2023-09-19T02:22:27;5.28;;;2.30;;
15968;SDS011;8085;53.472;9.794;2023-09-19T02:24:54;3.95;;;2.28;;
15968;SDS011;8085;53.472;9.794;2023-09-19T02:27:23;6.65;;;2.55;;
15968;SDS011;8085;53.472;9.794;2023-09-19T02:29:50;5.25;;;2.00;;
15968;SDS011;8085;53.472;9.794;2023-09-19T02:32:17;6.43;;;2.33;;
15968;SDS011;8085;53.472;9.794;2023-09-19T02:34:44;6.45;;;2.20;;
15968;SDS011;8085;53.472;9.794;2023-09-19T02:37:12;7.07;;;2.05;;
15968;SDS011;8085;53.472;9.794;2023-09-19T02:39:44;5.82;;;1.95;;
15968;SDS011;8085;53.472;9.794;2023-09-19T02:42:11;4.53;;;2.03;;
15968;SDS011;8085;53.472;9.794;2023-09-19T02:44:38;4.18;;;1.83;;
15968;SDS011;8085;53.472;9.794;2023-09-19T02:47:05;3.55;;;2.03;;
15968;SDS011;8085;53.472;9.794;2023-09-19T02:49:32;5.18;;;1.98;;
15968;SDS011;8085;53.472;9.794;2023-09-19T02:52:00;5.35;;;1.88;;
15968;SDS011;8085;53.472;9.794;2023-09-19T02:54:29;5.32;;;1.83;;
15968;SDS011;8085;53.472;9.794;2023-09-19T02:56:56;4.38;;;1.77;;
15968;SDS011;8085;53.472;9.794;2023-09-19T02:59:24;4.93;;;1.85;;
15968;SDS011;8085;53.472;9.794;2023-09-19T03:01:51;4.28;;;1.77;;
15968;SDS011;8085;53.472;9.794;2023-09-19T03:04:19;3.25;;;1.52;;
15968;SDS011;8085;53.472;9.794;2023-09-19T03:06:46;5.22;;;1.67;;
15968;SDS011;8085;53.472;9.794;2023-09-19T03:09:16;6.53;;;1.70;;
15968;SDS011;8085;53.472;9.794;2023-09-19T03:11:45;7.22;;;1.65;;
15968;SDS011;8085;53.472;9.794;2023-09-19T03:14:12;3.42;;;1.65;;
15968;SDS011;8085;53.472;9.794;2023-09-19T03:16:40;5.05;;;1.55;;
15968;SDS011;8085;53.472;9.794;2023-09-19T03:19:09;2.92;;;1.30;;
15968;SDS011;8085;53.472;9.794;2023-09-19T03:21:37;6.47;;;1.92;;
15968;SDS011;8085;53.472;9.794;2023-09-19T03:24:04;4.43;;;1.38;;
15968;SDS011;8085;53.472;9.794;2023-09-19T03:26:32;4.90;;;1.20;;
15968;SDS011;8085;53.472;9.794;2023-09-19T03:29:00;2.95;;;1.10;;
15968;SDS011;8085;53.472;9.794;2023-09-19T03:31:31;3.88;;;1.08;;
15968;SDS011;8085;53.472;9.794;2023-09-19T03:33:58;5.00;;;1.30;;
15968;SDS011;8085;53.472;9.794;2023-09-19T03:36:25;5.40;;;1.38;;
15968;SDS011;8085;53.472;9.794;2023-09-19T03:38:53;4.57;;;1.02;;
15968;SDS011;8085;53.472;9.794;2023-09-19T03:41:20;2.30;;;1.00;;
15968;SDS011;8085;53.472;9.794;2023-09-19T03:43:47;2.28;;;1.00;;
15968;SDS011;8085;53.472;9.794;2023-09-19T03:46:15;4.30;;;0.60;;
15968;SDS011;8085;53.472;9.794;2023-09-19T03:48:42;3.28;;;0.88;;
15968;SDS011;8085;53.472;9.794;2023-09-19T03:51:09;2.70;;;0.80;;
15968;SDS011;8085;53.472;9.794;2023-09-19T03:53:36;3.20;;;0.93;;
15968;SDS011;8085;53.472;9.794;2023-09-19T03:56:03;3.85;;;0.80;;
15968;SDS011;8085;53.472;9.794;2023-09-19T03:58:30;3.30;;;0.70;;
15968;SDS011;8085;53.472;9.794;2023-09-19T04:00:59;4.97;;;0.90;;
15968;SDS011;8085;53.472;9.794;2023-09-19T04:03:27;3.10;;;0.73;;
15968;SDS011;8085;53.472;9.794;2023-09-19T04:06:00;2.67;;;0.70;;
15968;SDS011;8085;53.472;9.794;2023-09-19T04:08:27;3.20;;;0.88;;
15968;SDS011;8085;53.472;9.794;2023-09-19T04:10:54;3.53;;;0.85;;
15968;SDS011;8085;53.472;9.794;2023-09-19T04:13:22;3.13;;;0.70;;
15968;SDS011;8085;53.472;9.794;2023-09-19T04:15:49;4.38;;;0.75;;
15968;SDS011;8085;53.472;9.794;2023-09-19T04:18:16;4.38;;;0.90;;
15968;SDS011;8085;53.472;9.794;2023-09-19T04:20:48;4.50;;;0.93;;
15968;SDS011;8085;53.472;9.794;2023-09-19T04:23:15;4.85;;;0.80;;
15968;SDS011;8085;53.472;9.794;2023-09-19T04:25:45;8.73;;;1.00;;
15968;SDS011;8085;53.472;9.794;2023-09-19T04:28:11;3.70;;;0.90;;
15968;SDS011;8085;53.472;9.794;2023-09-19T04:30:38;5.40;;;0.90;;
15968;SDS011;8085;53.472;9.794;2023-09-19T04:33:05;4.05;;;0.60;;
15968;SDS011;8085;53.472;9.794;2023-09-19T04:35:32;4.78;;;0.98;;
15968;SDS011;8085;53.472;9.794;2023-09-19T04:38:01;3.03;;;0.90;;
15968;SDS011;8085;53.472;9.794;2023-09-19T04:40:31;3.65;;;0.85;;
15968;SDS011;8085;53.472;9.794;2023-09-19T04:42:59;4.32;;;1.10;;
15968;SDS011;8085;53.472;9.794;2023-09-19T04:45:26;7.25;;;1.27;;
15968;SDS011;8085;53.472;9.794;2023-09-19T04:47:54;4.70;;;0.80;;
15968;SDS011;8085;53.472;9.794;2023-09-19T04:50:21;5.68;;;0.90;;
15968;SDS011;8085;53.472;9.794;2023-09-19T04:52:49;3.55;;;1.00;;
15968;SDS011;8085;53.472;9.794;2023-09-19T04:55:18;4.07;;;0.90;;
15968;SDS011;8085;53.472;9.794;2023-09-19T04:57:45;6.20;;;1.10;;
15968;SDS011;8085;53.472;9.794;2023-09-19T05:00:14;3.55;;;0.90;;
15968;SDS011;8085;53.472;9.794;2023-09-19T05:02:42;5.30;;;1.05;;
15968;SDS011;8085;53.472;9.794;2023-09-19T05:05:10;4.45;;;1.20;;
15968;SDS011;8085;53.472;9.794;2023-09-19T05:07:40;6.13;;;1.25;;
15968;SDS011;8085;53.472;9.794;2023-09-19T05:10:09;2.67;;;0.90;;
15968;SDS011;8085;53.472;9.794;2023-09-19T05:12:38;5.85;;;1.15;;
15968;SDS011;8085;53.472;9.794;2023-09-19T05:15:05;2.78;;;0.95;;
15968;SDS011;8085;53.472;9.794;2023-09-19T05:17:33;5.68;;;1.20;;
15968;SDS011;8085;53.472;9.794;2023-09-19T05:20:01;4.40;;;1.10;;
15968;SDS011;8085;53.472;9.794;2023-09-19T05:22:31;4.97;;;0.93;;
15968;SDS011;8085;53.472;9.794;2023-09-19T05:24:59;2.33;;;0.90;;
15968;SDS011;8085;53.472;9.794;2023-09-19T05:27:29;5.60;;;1.10;;
15968;SDS011;8085;53.472;9.794;2023-09-19T05:29:58;3.80;;;1.13;;
15968;SDS011;8085;53.472;9.794;2023-09-19T05:32:24;7.72;;;1.50;;
15968;SDS011;8085;53.472;9.794;2023-09-19T05:34:51;8.68;;;1.08;;
15968;SDS011;8085;53.472;9.794;2023-09-19T05:37:22;7.55;;;0.95;;
15968;SDS011;8085;53.472;9.794;2023-09-19T05:39:51;6.07;;;1.13;;
15968;SDS011;8085;53.472;9.794;2023-09-19T05:42:18;4.40;;;0.82;;
15968;SDS011;8085;53.472;9.794;2023-09-19T05:44:45;3.42;;;1.02;;
15968;SDS011;8085;53.472;9.794;2023-09-19T05:47:14;7.63;;;1.02;;
15968;SDS011;8085;53.472;9.794;2023-09-19T05:49:40;4.95;;;1.00;;
15968;SDS011;8085;53.472;9.794;2023-09-19T05:52:07;5.60;;;1.20;;
15968;SDS011;8085;53.472;9.794;2023-09-19T05:54:35;4.75;;;1.13;;
15968;SDS011;8085;53.472;9.794;2023-09-19T05:57:02;3.38;;;1.13;;
15968;SDS011;8085;53.472;9.794;2023-09-19T05:59:29;4.47;;;1.30;;
15968;SDS011;8085;53.472;9.794;2023-09-19T06:01:58;5.57;;;1.23;;
15968;SDS011;8085;53.472;9.794;2023-09-19T06:04:27;3.17;;;1.15;;
15968;SDS011;8085;53.472;9.794;2023-09-19T06:06:55;5.00;;;1.13;;
15968;SDS011;8085;53.472;9.794;2023-09-19T06:09:23;4.43;;;1.20;;
15968;SDS011;8085;53.472;9.794;2023-09-19T06:11:52;10.10;;;1.80;;
15968;SDS011;8085;53.472;9.794;2023-09-19T06:14:20;6.95;;;1.02;;
15968;SDS011;8085;53.472;9.794;2023-09-19T06:16:49;10.23;;;1.42;;
15968;SDS011;8085;53.472;9.794;2023-09-19T06:19:19;4.32;;;1.13;;
15968;SDS011;8085;53.472;9.794;2023-09-19T06:21:49;6.05;;;1.15;;
15968;SDS011;8085;53.472;9.794;2023-09-19T06:24:16;7.72;;;1.20;;
15968;SDS011;8085;53.472;9.794;2023-09-19T06:26:44;5.15;;;1.17;;
15968;SDS011;8085;53.472;9.794;2023-09-19T06:29:12;6.18;;;1.20;;
15968;SDS011;8085;53.472;9.794;2023-09-19T06:31:39;6.43;;;1.00;;
15968;SDS011;8085;53.472;9.794;2023-09-19T06:34:07;7.00;;;1.23;;
15968;SDS011;8085;53.472;9.794;2023-09-19T06:36:34;9.60;;;1.50;;
15968;SDS011;8085;53.472;9.794;2023-09-19T06:39:02;3.80;;;1.13;;
15968;SDS011;8085;53.472;9.794;2023-09-19T06:41:31;6.50;;;1.20;;
15968;SDS011;8085;53.472;9.794;2023-09-19T06:43:58;7.50;;;1.30;;
15968;SDS011;8085;53.472;9.794;2023-09-19T06:46:26;8.20;;;1.45;;
15968;SDS011;8085;53.472;9.794;2023-09-19T06:48:58;7.10;;;1.75;;
15968;SDS011;8085;53.472;9.794;2023-09-19T06:51:25;8.52;;;1.23;;
15968;SDS011;8085;53.472;9.794;2023-09-19T06:53:52;8.32;;;1.33;;
15968;SDS011;8085;53.472;9.794;2023-09-19T06:56:21;6.40;;;1.30;;
15968;SDS011;8085;53.472;9.794;2023-09-19T06:58:49;8.95;;;1.58;;
15968;SDS011;8085;53.472;9.794;2023-09-19T07:01:16;5.45;;;1.25;;
15968;SDS011;8085;53.472;9.794;2023-09-19T07:03:43;6.63;;;1.38;;
15968;SDS011;8085;53.472;9.794;2023-09-19T07:06:12;5.63;;;1.27;;
15968;SDS011;8085;53.472;9.794;2023-09-19T07:08:39;5.88;;;1.30;;
15968;SDS011;8085;53.472;9.794;2023-09-19T07:11:06;8.40;;;1.70;;
15968;SDS011;8085;53.472;9.794;2023-09-19T07:13:37;6.10;;;1.30;;
15968;SDS011;8085;53.472;9.794;2023-09-19T07:16:08;5.18;;;1.23;;
15968;SDS011;8085;53.472;9.794;2023-09-19T07:18:52;6.10;;;1.70;;
15968;SDS011;8085;53.472;9.794;2023-09-19T07:21:20;8.18;;;1.50;;
15968;SDS011;8085;53.472;9.794;2023-09-19T07:23:47;5.13;;;1.40;;
15968;SDS011;8085;53.472;9.794;2023-09-19T07:26:14;7.10;;;1.60;;
15968;SDS011;8085;53.472;9.794;2023-09-19T07:28:43;7.85;;;1.50;;
15968;SDS011;8085;53.472;9.794;2023-09-19T07:31:10;7.70;;;1.58;;
15968;SDS011;8085;53.472;9.794;2023-09-19T07:33:41;5.47;;;1.30;;
15968;SDS011;8085;53.472;9.794;2023-09-19T07:36:11;7.47;;;1.42;;
15968;SDS011;8085;53.472;9.794;2023-09-19T07:38:39;13.55;;;1.88;;
15968;SDS011;8085;53.472;9.794;2023-09-19T07:41:15;6.28;;;1.35;;
15968;SDS011;8085;53.472;9.794;2023-09-19T07:43:43;6.47;;;1.20;;
15968;SDS011;8085;53.472;9.794;2023-09-19T07:46:10;7.32;;;1.52;;
15968;SDS011;8085;53.472;9.794;2023-09-19T07:48:38;7.35;;;1.40;;
15968;SDS011;8085;53.472;9.794;2023-09-19T07:51:07;8.30;;;1.60;;
15968;SDS011;8085;53.472;9.794;2023-09-19T07:53:36;9.82;;;1.73;;
15968;SDS011;8085;53.472;9.794;2023-09-19T07:56:04;7.55;;;1.80;;
15968;SDS011;8085;53.472;9.794;2023-09-19T07:58:32;11.77;;;1.77;;
15968;SDS011;8085;53.472;9.794;2023-09-19T08:01:05;7.10;;;1.50;;
15968;SDS011;8085;53.472;9.794;2023-09-19T08:03:38;9.32;;;1.70;;
15968;SDS011;8085;53.472;9.794;2023-09-19T08:06:10;5.53;;;1.33;;
15968;SDS011;8085;53.472;9.794;2023-09-19T08:08:39;10.20;;;1.67;;
15968;SDS011;8085;53.472;9.794;2023-09-19T08:11:06;7.63;;;1.80;;
15968;SDS011;8085;53.472;9.794;2023-09-19T08:13:36;5.15;;;1.40;;
15968;SDS011;8085;53.472;9.794;2023-09-19T08:16:08;7.80;;;1.95;;
15968;SDS011;8085;53.472;9.794;2023-09-19T08:18:35;12.75;;;1.90;;
15968;SDS011;8085;53.472;9.794;2023-09-19T08:21:03;6.22;;;1.65;;
15968;SDS011;8085;53.472;9.794;2023-09-19T08:23:32;6.93;;;1.58;;
15968;SDS011;8085;53.472;9.794;2023-09-19T08:26:00;11.63;;;1.85;;
15968;SDS011;8085;53.472;9.794;2023-09-19T08:28:31;7.53;;;1.80;;
15968;SDS011;8085;53.472;9.794;2023-09-19T08:31:01;9.40;;;1.40;;
15968;SDS011;8085;53.472;9.794;2023-09-19T08:33:32;10.18;;;2.10;;
15968;SDS011;8085;53.472;9.794;2023-09-19T08:36:00;7.22;;;1.20;;
15968;SDS011;8085;53.472;9.794;2023-09-19T08:38:30;7.15;;;1.40;;
15968;SDS011;8085;53.472;9.794;2023-09-19T08:40:58;10.35;;;1.50;;
15968;SDS011;8085;53.472;9.794;2023-09-19T08:43:26;10.80;;;1.60;;
15968;SDS011;8085;53.472;9.794;2023-09-19T08:45:54;8.02;;;1.73;;
15968;SDS011;8085;53.472;9.794;2023-09-19T08:48:25;13.48;;;1.52;;
15968;SDS011;8085;53.472;9.794;2023-09-19T08:50:57;7.68;;;1.73;;
15968;SDS011;8085;53.472;9.794;2023-09-19T08:53:31;8.63;;;2.15;;
15968;SDS011;8085;53.472;9.794;2023-09-19T08:56:08;7.80;;;1.58;;
15968;SDS011;8085;53.472;9.794;2023-09-19T08:58:39;4.93;;;1.30;;
15968;SDS011;8085;53.472;9.794;2023-09-19T09:01:14;5.82;;;1.45;;
15968;SDS011;8085;53.472;9.794;2023-09-19T09:03:43;11.27;;;1.70;;
15968;SDS011;8085;53.472;9.794;2023-09-19T09:06:15;11.05;;;1.50;;
15968;SDS011;8085;53.472;9.794;2023-09-19T09:08:43;6.47;;;1.20;;
15968;SDS011;8085;53.472;9.794;2023-09-19T09:11:11;6.75;;;1.38;;
15968;SDS011;8085;53.472;9.794;2023-09-19T09:13:39;8.95;;;1.48;;
15968;SDS011;8085;53.472;9.794;2023-09-19T09:16:09;7.35;;;1.38;;
15968;SDS011;8085;53.472;9.794;2023-09-19T09:18:38;8.38;;;1.33;;
15968;SDS011;8085;53.472;9.794;2023-09-19T09:21:05;7.03;;;1.30;;
15968;SDS011;8085;53.472;9.794;2023-09-19T09:23:33;7.70;;;1.40;;
15968;SDS011;8085;53.472;9.794;2023-09-19T09:26:00;10.07;;;1.27;;
15968;SDS011;8085;53.472;9.794;2023-09-19T09:28:30;7.57;;;1.75;;
15968;SDS011;8085;53.472;9.794;2023-09-19T09:30:58;8.00;;;1.63;;
15968;SDS011;8085;53.472;9.794;2023-09-19T09:33:27;6.03;;;1.58;;
15968;SDS011;8085;53.472;9.794;2023-09-19T09:35:55;14.25;;;1.50;;
15968;SDS011;8085;53.472;9.794;2023-09-19T09:38:25;8.48;;;1.58;;
15968;SDS011;8085;53.472;9.794;2023-09-19T09:40:58;8.73;;;1.30;;
15968;SDS011;8085;53.472;9.794;2023-09-19T09:43:32;12.57;;;1.60;;
15968;SDS011;8085;53.472;9.794;2023-09-19T09:46:11;5.93;;;1.20;;
15968;SDS011;8085;53.472;9.794;2023-09-19T09:51:50;6.22;;;1.02;;
15968;SDS011;8085;53.472;9.794;2023-09-19T09:54:26;7.80;;;1.70;;
15968;SDS011;8085;53.472;9.794;2023-09-19T09:57:01;8.40;;;1.25;;
15968;SDS011;8085;53.472;9.794;2023-09-19T09:59:45;6.38;;;1.27;;
15968;SDS011;8085;53.472;9.794;2023-09-19T10:02:14;7.30;;;0.85;;
15968;SDS011;8085;53.472;9.794;2023-09-19T10:04:48;7.65;;;1.40;;
15968;SDS011;8085;53.472;9.794;2023-09-19T10:07:33;8.65;;;1.27;;
15968;SDS011;8085;53.472;9.794;2023-09-19T10:10:07;8.02;;;1.02;;
15968;SDS011;8085;53.472;9.794;2023-09-19T10:12:43;10.68;;;1.20;;
15968;SDS011;8085;53.472;9.794;2023-09-19T10:15:18;4.43;;;1.20;;
15968;SDS011;8085;53.472;9.794;2023-09-19T10:17:47;12.50;;;1.20;;
15968;SDS011;8085;53.472;9.794;2023-09-19T10:20:15;4.93;;;1.15;;
15968;SDS011;8085;53.472;9.794;2023-09-19T10:23:01;10.63;;;1.05;;
15968;SDS011;8085;53.472;9.794;2023-09-19T10:25:37;4.63;;;1.17;;
15968;SDS011;8085;53.472;9.794;2023-09-19T10:28:07;3.90;;;0.90;;
15968;SDS011;8085;53.472;9.794;2023-09-19T10:30:36;8.45;;;1.42;;
15968;SDS011;8085;53.472;9.794;2023-09-19T10:33:10;8.73;;;1.40;;
15968;SDS011;8085;53.472;9.794;2023-09-19T10:35:39;8.13;;;1.10;;
15968;SDS011;8085;53.472;9.794;2023-09-19T10:38:09;6.38;;;1.20;;
15968;SDS011;8085;53.472;9.794;2023-09-19T10:40:37;6.18;;;1.38;;
15968;SDS011;8085;53.472;9.794;2023-09-19T10:43:11;4.43;;;1.17;;
15968;SDS011;8085;53.472;9.794;2023-09-19T10:45:40;7.80;;;1.05;;
15968;SDS011;8085;53.472;9.794;2023-09-19T10:48:09;9.13;;;1.70;;
15968;SDS011;8085;53.472;9.794;2023-09-19T10:50:41;5.97;;;1.23;;
15968;SDS011;8085;53.472;9.794;2023-09-19T10:53:12;4.28;;;1.05;;
15968;SDS011;8085;53.472;9.794;2023-09-19T10:55:40;8.43;;;1.13;;
15968;SDS011;8085;53.472;9.794;2023-09-19T10:58:25;7.15;;;0.95;;
15968;SDS011;8085;53.472;9.794;2023-09-19T11:00:54;6.63;;;1.48;;
15968;SDS011;8085;53.472;9.794;2023-09-19T11:03:22;8.63;;;1.40;;
15968;SDS011;8085;53.472;9.794;2023-09-19T11:06:02;7.43;;;1.00;;
15968;SDS011;8085;53.472;9.794;2023-09-19T11:11:42;6.80;;;1.30;;
15968;SDS011;8085;53.472;9.794;2023-09-19T11:14:28;4.95;;;1.10;;
15968;SDS011;8085;53.472;9.794;2023-09-19T11:25:48;3.30;;;0.80;;
15968;SDS011;8085;53.472;9.794;2023-09-19T11:28:30;6.93;;;1.00;;
15968;SDS011;8085;53.472;9.794;2023-09-19T11:30:59;3.10;;;0.90;;
15968;SDS011;8085;53.472;9.794;2023-09-19T11:34:37;6.00;;;1.00;;
15968;SDS011;8085;53.472;9.794;2023-09-19T11:40:44;6.32;;;1.00;;
15968;SDS011;8085;53.472;9.794;2023-09-19T11:43:32;6.25;;;1.30;;
15968;SDS011;8085;53.472;9.794;2023-09-19T11:46:06;6.75;;;1.27;;
15968;SDS011;8085;53.472;9.794;2023-09-19T11:48:33;12.43;;;1.35;;
15968;SDS011;8085;53.472;9.794;2023-09-19T11:51:09;7.88;;;1.15;;
15968;SDS011;8085;53.472;9.794;2023-09-19T11:53:48;6.03;;;1.45;;
15968;SDS011;8085;53.472;9.794;2023-09-19T11:56:17;4.75;;;1.15;;
15968;SDS011;8085;53.472;9.794;2023-09-19T11:58:45;9.50;;;1.27;;
15968;SDS011;8085;53.472;9.794;2023-09-19T12:01:20;6.65;;;1.00;;
15968;SDS011;8085;53.472;9.794;2023-09-19T12:03:52;6.85;;;1.17;;
15968;SDS011;8085;53.472;9.794;2023-09-19T12:06:22;10.57;;;1.45;;
15968;SDS011;8085;53.472;9.794;2023-09-19T12:08:50;3.72;;;1.17;;
15968;SDS011;8085;53.472;9.794;2023-09-19T12:11:19;5.38;;;1.20;;
15968;SDS011;8085;53.472;9.794;2023-09-19T12:13:50;6.82;;;1.20;;
15968;SDS011;8085;53.472;9.794;2023-09-19T12:16:20;6.00;;;1.48;;
15968;SDS011;8085;53.472;9.794;2023-09-19T12:18:48;6.72;;;1.50;;
15968;SDS011;8085;53.472;9.794;2023-09-19T12:26:40;8.68;;;1.52;;
15968;SDS011;8085;53.472;9.794;2023-09-19T12:29:12;4.95;;;1.33;;
15968;SDS011;8085;53.472;9.794;2023-09-19T12:31:54;8.52;;;1.35;;
15968;SDS011;8085;53.472;9.794;2023-09-19T12:34:23;6.57;;;1.05;;
15968;SDS011;8085;53.472;9.794;2023-09-19T12:37:05;7.05;;;1.20;;
15968;SDS011;8085;53.472;9.794;2023-09-19T12:39:37;8.52;;;1.45;;
15968;SDS011;8085;53.472;9.794;2023-09-19T12:42:09;9.98;;;1.63;;
15968;SDS011;8085;53.472;9.794;2023-09-19T12:44:40;6.75;;;1.38;;
15968;SDS011;8085;53.472;9.794;2023-09-19T12:47:13;9.55;;;1.27;;
15968;SDS011;8085;53.472;9.794;2023-09-19T12:52:38;6.32;;;1.30;;
15968;SDS011;8085;53.472;9.794;2023-09-19T12:55:06;5.47;;;1.58;;
15968;SDS011;8085;53.472;9.794;2023-09-19T12:57:34;7.50;;;1.30;;
15968;SDS011;8085;53.472;9.794;2023-09-19T13:00:01;7.72;;;1.67;;
15968;SDS011;8085;53.472;9.794;2023-09-19T13:02:32;5.57;;;1.63;;
15968;SDS011;8085;53.472;9.794;2023-09-19T13:04:59;5.97;;;1.27;;
15968;SDS011;8085;53.472;9.794;2023-09-19T13:07:41;6.00;;;1.08;;
15968;SDS011;8085;53.472;9.794;2023-09-19T13:10:11;4.45;;;1.20;;
15968;SDS011;8085;53.472;9.794;2023-09-19T13:12:40;7.78;;;1.45;;
15968;SDS011;8085;53.472;9.794;2023-09-19T13:15:09;10.98;;;1.60;;
15968;SDS011;8085;53.472;9.794;2023-09-19T13:17:44;8.48;;;1.73;;
15968;SDS011;8085;53.472;9.794;2023-09-19T13:20:20;6.55;;;1.30;;
15968;SDS011;8085;53.472;9.794;2023-09-19T13:22:52;10.10;;;1.95;;
15968;SDS011;8085;53.472;9.794;2023-09-19T13:25:23;5.28;;;1.20;;
15968;SDS011;8085;53.472;9.794;2023-09-19T13:27:52;8.70;;;1.15;;
15968;SDS011;8085;53.472;9.794;2023-09-19T13:30:21;7.50;;;1.52;;
15968;SDS011;8085;53.472;9.794;2023-09-19T13:32:51;9.55;;;1.65;;
15968;SDS011;8085;53.472;9.794;2023-09-19T13:35:19;7.60;;;1.27;;
15968;SDS011;8085;53.472;9.794;2023-09-19T13:37:46;10.95;;;1.50;;
15968;SDS011;8085;53.472;9.794;2023-09-19T13:40:14;5.72;;;1.45;;
15968;SDS011;8085;53.472;9.794;2023-09-19T13:42:41;6.93;;;1.65;;
15968;SDS011;8085;53.472;9.794;2023-09-19T13:45:09;8.27;;;1.45;;
15968;SDS011;8085;53.472;9.794;2023-09-19T13:47:37;4.90;;;1.33;;
15968;SDS011;8085;53.472;9.794;2023-09-19T13:50:06;5.82;;;1.38;;
15968;SDS011;8085;53.472;9.794;2023-09-19T13:52:34;6.32;;;1.67;;
15968;SDS011;8085;53.472;9.794;2023-09-19T13:55:00;5.50;;;1.15;;
15968;SDS011;8085;53.472;9.794;2023-09-19T13:57:27;7.68;;;1.30;;
15968;SDS011;8085;53.472;9.794;2023-09-19T13:59:55;9.27;;;1.40;;
15968;SDS011;8085;53.472;9.794;2023-09-19T14:02:22;6.90;;;1.30;;
15968;SDS011;8085;53.472;9.794;2023-09-19T14:04:49;9.45;;;1.42;;
15968;SDS011;8085;53.472;9.794;2023-09-19T14:07:17;8.35;;;1.52;;
15968;SDS011;8085;53.472;9.794;2023-09-19T14:09:45;8.10;;;1.50;;
15968;SDS011;8085;53.472;9.794;2023-09-19T14:12:12;4.70;;;1.45;;
15968;SDS011;8085;53.472;9.794;2023-09-19T14:14:39;5.57;;;1.15;;
15968;SDS011;8085;53.472;9.794;2023-09-19T14:17:07;9.05;;;1.27;;
15968;SDS011;8085;53.472;9.794;2023-09-19T14:19:34;4.07;;;1.58;;
15968;SDS011;8085;53.472;9.794;2023-09-19T14:22:01;4.70;;;1.20;;
15968;SDS011;8085;53.472;9.794;2023-09-19T14:24:34;4.32;;;1.52;;
15968;SDS011;8085;53.472;9.794;2023-09-19T14:27:01;5.53;;;1.40;;
15968;SDS011;8085;53.472;9.794;2023-09-19T14:29:29;7.05;;;1.50;;
15968;SDS011;8085;53.472;9.794;2023-09-19T14:31:56;7.63;;;1.13;;
15968;SDS011;8085;53.472;9.794;2023-09-19T14:34:23;10.52;;;1.02;;
15968;SDS011;8085;53.472;9.794;2023-09-19T14:36:50;8.57;;;1.38;;
15968;SDS011;8085;53.472;9.794;2023-09-19T14:39:19;7.25;;;1.20;;
15968;SDS011;8085;53.472;9.794;2023-09-19T14:41:47;9.40;;;1.30;;
15968;SDS011;8085;53.472;9.794;2023-09-19T14:44:14;4.65;;;1.25;;
15968;SDS011;8085;53.472;9.794;2023-09-19T14:46:42;7.43;;;1.50;;
15968;SDS011;8085;53.472;9.794;2023-09-19T14:49:09;4.50;;;1.08;;
15968;SDS011;8085;53.472;9.794;2023-09-19T14:51:37;6.57;;;1.40;;
15968;SDS011;8085;53.472;9.794;2023-09-19T14:54:05;9.00;;;1.52;;
15968;SDS011;8085;53.472;9.794;2023-09-19T14:56:33;8.45;;;1.60;;
15968;SDS011;8085;53.472;9.794;2023-09-19T14:59:01;4.95;;;1.20;;
15968;SDS011;8085;53.472;9.794;2023-09-19T15:01:29;3.83;;;1.00;;
15968;SDS011;8085;53.472;9.794;2023-09-19T15:03:57;3.00;;;0.90;;
15968;SDS011;8085;53.472;9.794;2023-09-19T15:06:26;7.03;;;1.40;;
15968;SDS011;8085;53.472;9.794;2023-09-19T15:08:53;3.97;;;1.10;;
15968;SDS011;8085;53.472;9.794;2023-09-19T15:11:20;7.15;;;1.30;;
15968;SDS011;8085;53.472;9.794;2023-09-19T15:13:47;5.10;;;1.55;;
15968;SDS011;8085;53.472;9.794;2023-09-19T15:16:18;6.93;;;1.13;;
15968;SDS011;8085;53.472;9.794;2023-09-19T15:18:45;7.50;;;1.35;;
15968;SDS011;8085;53.472;9.794;2023-09-19T15:21:13;6.35;;;1.80;;
15968;SDS011;8085;53.472;9.794;2023-09-19T15:23:41;10.82;;;1.52;;
15968;SDS011;8085;53.472;9.794;2023-09-19T15:26:09;4.43;;;1.38;;
15968;SDS011;8085;53.472;9.794;2023-09-19T15:28:38;5.22;;;1.10;;
15968;SDS011;8085;53.472;9.794;2023-09-19T15:31:07;9.40;;;1.73;;
15968;SDS011;8085;53.472;9.794;2023-09-19T15:33:36;3.80;;;1.40;;
15968;SDS011;8085;53.472;9.794;2023-09-19T15:36:04;5.97;;;1.40;;
15968;SDS011;8085;53.472;9.794;2023-09-19T15:38:54;7.95;;;1.40;;
15968;SDS011;8085;53.472;9.794;2023-09-19T15:41:24;7.28;;;1.60;;
15968;SDS011;8085;53.472;9.794;2023-09-19T15:43:51;4.40;;;1.13;;
15968;SDS011;8085;53.472;9.794;2023-09-19T15:46:18;4.25;;;1.42;;
15968;SDS011;8085;53.472;9.794;2023-09-19T15:48:47;4.07;;;1.33;;
15968;SDS011;8085;53.472;9.794;2023-09-19T15:51:15;4.82;;;1.33;;